»·PEaware :: N524ML KENV-KTVY

N524ML :: KENV-KTVY

FLIGHT INFORMATION

Flight Status: Arrived
Operator: Privately registered:
United States
More flights under this callsign
Pilot: Max L. (14194)
Aircraft: CESSNA 172 SKYHAWK
(C172)
More flights by this aircraft type
Origin: KENV Wendover
United States
Destination: KTVY Bolinder-Tooele Valley
United States
More flights between these airports :: More routes between these airports
Route:
File this flight plan on PilotEdge
Remarks:
Altitude:
(Current/Filed)
9,500ft
Speed:
(Current/Filed)
120kts
Departed: 17-Jun-18 09:11 AM
Arrived: 17-Jun-18 09:56 AM
Distance/Time
Traveled:
77nm/0:45
Distance/Time
To Go:
Arrived

Flight Plot

Page will automatically refresh every two minutes.

Flight plan parsing failed; only flown route is shown


Map Options




Map Legend


Flown Route
Filed Route
Departure Airport
Arrival Airport
Navaid (VOR, NDB)
Fix

Horizontal Profiles

Position Reports

Time Latitude Longitude Heading Altitude Ground
Speed
17-Jun-18 09:05 40.727732 -114.038587 179 4243ft 0kts
17-Jun-18 09:06 40.726564 -114.039678 268 4240ft 24kts
17-Jun-18 09:07 40.724631 -114.042929 176 4236ft 30kts
17-Jun-18 09:08 40.719684 -114.043348 185 4231ft 0kts
17-Jun-18 09:09 40.719684 -114.043348 185 4231ft 0kts
17-Jun-18 09:10 40.719684 -114.043348 185 4231ft 0kts
17-Jun-18 09:11 40.718963 -114.039556 90 4229ft 51kts
17-Jun-18 09:12 40.721174 -114.012920 75 4984ft 74kts
17-Jun-18 09:13 40.726402 -113.986179 70 5804ft 77kts
17-Jun-18 09:14 40.721882 -113.959484 99 6586ft 75kts
17-Jun-18 09:15 40.720044 -113.931851 90 7311ft 77kts
17-Jun-18 09:16 40.719806 -113.903731 89 8006ft 76kts
17-Jun-18 09:17 40.719889 -113.875607 88 8639ft 78kts
17-Jun-18 09:18 40.720024 -113.846931 88 9231ft 79kts
17-Jun-18 09:19 40.720169 -113.814627 89 9509ft 105kts
17-Jun-18 09:20 40.720327 -113.772572 89 9501ft 119kts
17-Jun-18 09:21 40.720523 -113.726772 89 9500ft 126kts
17-Jun-18 09:22 40.720711 -113.681458 89 9499ft 123kts
17-Jun-18 09:23 40.720883 -113.635678 89 9499ft 123kts
17-Jun-18 09:24 40.721038 -113.590294 89 9500ft 123kts
17-Jun-18 09:25 40.721176 -113.544966 89 9499ft 123kts
17-Jun-18 09:26 40.721295 -113.499764 89 9499ft 123kts
17-Jun-18 09:27 40.721397 -113.454344 89 9499ft 123kts
17-Jun-18 09:28 40.721482 -113.409146 89 9500ft 123kts
17-Jun-18 09:29 40.721574 -113.363708 89 9500ft 123kts
17-Jun-18 09:30 40.721642 -113.319104 90 9499ft 123kts
17-Jun-18 09:31 40.721679 -113.273694 90 9500ft 123kts
17-Jun-18 09:32 40.721693 -113.228452 90 9500ft 123kts
17-Jun-18 09:33 40.721688 -113.183196 90 9500ft 123kts
17-Jun-18 09:34 40.721665 -113.137837 90 9499ft 123kts
17-Jun-18 09:35 40.721624 -113.092486 90 9499ft 123kts
17-Jun-18 09:36 40.721566 -113.047319 90 9500ft 123kts
17-Jun-18 09:37 40.721490 -113.001962 90 9500ft 123kts
17-Jun-18 09:38 40.721373 -112.956557 90 9500ft 123kts
17-Jun-18 09:39 40.721243 -112.911309 90 9500ft 123kts
17-Jun-18 09:40 40.721114 -112.865876 90 9499ft 123kts
17-Jun-18 09:41 40.720973 -112.821747 90 9500ft 124kts
17-Jun-18 09:42 40.720809 -112.776098 90 9500ft 124kts
17-Jun-18 09:43 40.720627 -112.730466 90 9499ft 124kts
17-Jun-18 09:44 40.720427 -112.684919 90 9499ft 124kts
17-Jun-18 09:45 40.720209 -112.639297 90 9499ft 124kts
17-Jun-18 09:46 40.719974 -112.593929 90 9499ft 124kts
17-Jun-18 09:47 40.719720 -112.548322 90 9500ft 124kts
17-Jun-18 09:48 40.706549 -112.508619 126 9500ft 122kts
17-Jun-18 09:49 40.689388 -112.478777 127 9151ft 125kts
17-Jun-18 09:50 40.667331 -112.442274 128 7990ft 127kts
17-Jun-18 09:51 40.646345 -112.406999 129 6630ft 115kts
17-Jun-18 09:52 40.622208 -112.394253 178 6291ft 96kts
17-Jun-18 09:53 40.591141 -112.388873 126 6145ft 95kts
17-Jun-18 09:54 40.589202 -112.357465 54 5339ft 75kts
17-Jun-18 09:55 40.607438 -112.350749 356 4328ft 59kts
17-Jun-18 09:56 40.614191 -112.349498 116 4297ft 9kts
17-Jun-18 09:57 40.611941 -112.348423 157 4303ft 5kts
17-Jun-18 09:58 40.611834 -112.348386 175 4303ft 0kts

Navigation Log

Ident Type
Flight plan parsing failed, navigation log unavailable